sensor_id;sensor_type;location;lat;lon;timestamp;P1;durP1;ratioP1;P2;durP2;ratioP2
3101;SDS011;1561;42.666;23.392;2022-07-06T00:00:18;19.95;;;17.92;;
3101;SDS011;1561;42.666;23.392;2022-07-06T00:02:48;19.25;;;17.45;;
3101;SDS011;1561;42.666;23.392;2022-07-06T00:05:15;19.65;;;17.67;;
3101;SDS011;1561;42.666;23.392;2022-07-06T00:07:45;19.27;;;17.48;;
3101;SDS011;1561;42.666;23.392;2022-07-06T00:10:13;20.45;;;18.63;;
3101;SDS011;1561;42.666;23.392;2022-07-06T00:12:41;23.00;;;20.63;;
3101;SDS011;1561;42.666;23.392;2022-07-06T00:15:09;19.73;;;17.73;;
3101;SDS011;1561;42.666;23.392;2022-07-06T00:17:37;18.95;;;16.95;;
3101;SDS011;1561;42.666;23.392;2022-07-06T00:20:07;18.45;;;16.65;;
3101;SDS011;1561;42.666;23.392;2022-07-06T00:22:38;20.33;;;17.75;;
3101;SDS011;1561;42.666;23.392;2022-07-06T00:25:06;21.65;;;19.38;;
3101;SDS011;1561;42.666;23.392;2022-07-06T00:27:34;19.52;;;17.55;;
3101;SDS011;1561;42.666;23.392;2022-07-06T00:30:00;19.27;;;17.42;;
3101;SDS011;1561;42.666;23.392;2022-07-06T00:32:27;20.33;;;18.30;;
3101;SDS011;1561;42.666;23.392;2022-07-06T00:34:54;18.92;;;17.10;;
3101;SDS011;1561;42.666;23.392;2022-07-06T00:37:22;18.63;;;16.70;;
3101;SDS011;1561;42.666;23.392;2022-07-06T00:39:50;19.30;;;17.30;;
3101;SDS011;1561;42.666;23.392;2022-07-06T00:42:17;18.70;;;16.83;;
3101;SDS011;1561;42.666;23.392;2022-07-06T00:44:44;25.40;;;18.13;;
3101;SDS011;1561;42.666;23.392;2022-07-06T00:47:12;20.95;;;18.10;;
3101;SDS011;1561;42.666;23.392;2022-07-06T00:49:40;20.38;;;18.27;;
3101;SDS011;1561;42.666;23.392;2022-07-06T00:52:27;20.73;;;18.73;;
3101;SDS011;1561;42.666;23.392;2022-07-06T00:54:55;19.40;;;17.45;;
3101;SDS011;1561;42.666;23.392;2022-07-06T00:57:22;20.63;;;18.48;;
3101;SDS011;1561;42.666;23.392;2022-07-06T00:59:48;18.60;;;16.67;;
3101;SDS011;1561;42.666;23.392;2022-07-06T01:02:17;20.45;;;18.25;;
3101;SDS011;1561;42.666;23.392;2022-07-06T01:04:45;19.73;;;17.70;;
3101;SDS011;1561;42.666;23.392;2022-07-06T01:07:12;18.95;;;17.02;;
3101;SDS011;1561;42.666;23.392;2022-07-06T01:09:41;20.27;;;18.23;;
3101;SDS011;1561;42.666;23.392;2022-07-06T01:12:10;21.13;;;19.02;;
3101;SDS011;1561;42.666;23.392;2022-07-06T01:14:40;19.40;;;17.50;;
3101;SDS011;1561;42.666;23.392;2022-07-06T01:17:07;20.05;;;16.90;;
3101;SDS011;1561;42.666;23.392;2022-07-06T01:19:35;20.48;;;18.38;;
3101;SDS011;1561;42.666;23.392;2022-07-06T01:22:04;20.60;;;18.40;;
3101;SDS011;1561;42.666;23.392;2022-07-06T01:24:34;24.27;;;19.20;;
3101;SDS011;1561;42.666;23.392;2022-07-06T01:27:01;24.20;;;20.55;;
3101;SDS011;1561;42.666;23.392;2022-07-06T01:29:31;22.75;;;20.40;;
3101;SDS011;1561;42.666;23.392;2022-07-06T01:32:01;24.40;;;21.90;;
3101;SDS011;1561;42.666;23.392;2022-07-06T01:34:30;23.42;;;20.98;;
3101;SDS011;1561;42.666;23.392;2022-07-06T01:36:58;29.17;;;20.70;;
3101;SDS011;1561;42.666;23.392;2022-07-06T01:39:27;26.55;;;22.83;;
3101;SDS011;1561;42.666;23.392;2022-07-06T01:41:57;26.23;;;23.35;;
3101;SDS011;1561;42.666;23.392;2022-07-06T01:44:26;25.13;;;22.52;;
3101;SDS011;1561;42.666;23.392;2022-07-06T01:46:53;29.02;;;23.10;;
3101;SDS011;1561;42.666;23.392;2022-07-06T01:49:22;31.98;;;26.45;;
3101;SDS011;1561;42.666;23.392;2022-07-06T01:51:51;30.25;;;25.27;;
3101;SDS011;1561;42.666;23.392;2022-07-06T01:54:21;30.75;;;26.27;;
3101;SDS011;1561;42.666;23.392;2022-07-06T01:56:49;30.38;;;26.92;;
3101;SDS011;1561;42.666;23.392;2022-07-06T01:59:16;32.17;;;28.33;;
3101;SDS011;1561;42.666;23.392;2022-07-06T02:01:43;32.88;;;28.90;;
3101;SDS011;1561;42.666;23.392;2022-07-06T02:04:12;36.95;;;31.50;;
3101;SDS011;1561;42.666;23.392;2022-07-06T02:06:39;33.88;;;29.88;;
3101;SDS011;1561;42.666;23.392;2022-07-06T02:09:07;33.15;;;29.42;;
3101;SDS011;1561;42.666;23.392;2022-07-06T02:11:38;31.38;;;27.42;;
3101;SDS011;1561;42.666;23.392;2022-07-06T02:14:06;28.20;;;25.23;;
3101;SDS011;1561;42.666;23.392;2022-07-06T02:16:35;22.67;;;20.25;;
3101;SDS011;1561;42.666;23.392;2022-07-06T02:19:02;18.65;;;16.80;;
3101;SDS011;1561;42.666;23.392;2022-07-06T02:21:30;18.35;;;16.65;;
3101;SDS011;1561;42.666;23.392;2022-07-06T02:23:57;17.83;;;16.05;;
3101;SDS011;1561;42.666;23.392;2022-07-06T02:26:25;19.23;;;17.42;;
3101;SDS011;1561;42.666;23.392;2022-07-06T02:28:52;19.48;;;17.58;;
3101;SDS011;1561;42.666;23.392;2022-07-06T02:31:21;18.67;;;16.80;;
3101;SDS011;1561;42.666;23.392;2022-07-06T02:33:48;17.05;;;15.27;;
3101;SDS011;1561;42.666;23.392;2022-07-06T02:36:15;17.25;;;15.65;;
3101;SDS011;1561;42.666;23.392;2022-07-06T02:38:43;17.45;;;15.85;;
3101;SDS011;1561;42.666;23.392;2022-07-06T02:41:11;20.35;;;17.40;;
3101;SDS011;1561;42.666;23.392;2022-07-06T02:43:42;17.05;;;15.30;;
3101;SDS011;1561;42.666;23.392;2022-07-06T02:46:09;16.73;;;15.07;;
3101;SDS011;1561;42.666;23.392;2022-07-06T02:48:37;16.13;;;14.18;;
3101;SDS011;1561;42.666;23.392;2022-07-06T02:51:06;19.33;;;17.33;;
3101;SDS011;1561;42.666;23.392;2022-07-06T02:53:35;17.63;;;15.82;;
3101;SDS011;1561;42.666;23.392;2022-07-06T02:56:02;20.15;;;17.98;;
3101;SDS011;1561;42.666;23.392;2022-07-06T02:58:31;17.40;;;15.70;;
3101;SDS011;1561;42.666;23.392;2022-07-06T03:00:59;19.73;;;17.83;;
3101;SDS011;1561;42.666;23.392;2022-07-06T03:03:32;20.80;;;17.85;;
3101;SDS011;1561;42.666;23.392;2022-07-06T03:06:04;21.73;;;16.40;;
3101;SDS011;1561;42.666;23.392;2022-07-06T03:08:33;19.42;;;17.48;;
3101;SDS011;1561;42.666;23.392;2022-07-06T03:11:05;19.15;;;17.30;;
3101;SDS011;1561;42.666;23.392;2022-07-06T03:13:34;20.25;;;17.80;;
3101;SDS011;1561;42.666;23.392;2022-07-06T03:16:01;19.20;;;16.38;;
3101;SDS011;1561;42.666;23.392;2022-07-06T03:18:30;16.38;;;14.77;;
3101;SDS011;1561;42.666;23.392;2022-07-06T03:20:58;17.90;;;16.10;;
3101;SDS011;1561;42.666;23.392;2022-07-06T03:23:29;20.60;;;18.50;;
3101;SDS011;1561;42.666;23.392;2022-07-06T03:25:58;16.85;;;15.05;;
3101;SDS011;1561;42.666;23.392;2022-07-06T03:28:26;18.75;;;16.55;;
3101;SDS011;1561;42.666;23.392;2022-07-06T03:30:55;21.70;;;18.08;;
3101;SDS011;1561;42.666;23.392;2022-07-06T03:33:23;20.88;;;18.73;;
3101;SDS011;1561;42.666;23.392;2022-07-06T03:35:53;20.27;;;18.15;;
3101;SDS011;1561;42.666;23.392;2022-07-06T03:38:26;16.90;;;15.30;;
3101;SDS011;1561;42.666;23.392;2022-07-06T03:40:56;19.10;;;17.10;;
3101;SDS011;1561;42.666;23.392;2022-07-06T03:43:24;20.45;;;18.38;;
3101;SDS011;1561;42.666;23.392;2022-07-06T03:45:54;19.58;;;17.58;;
3101;SDS011;1561;42.666;23.392;2022-07-06T03:48:21;19.88;;;17.60;;
3101;SDS011;1561;42.666;23.392;2022-07-06T03:50:49;21.13;;;18.98;;
3101;SDS011;1561;42.666;23.392;2022-07-06T03:53:18;21.98;;;19.60;;
3101;SDS011;1561;42.666;23.392;2022-07-06T03:58:50;26.50;;;19.50;;
3101;SDS011;1561;42.666;23.392;2022-07-06T04:01:28;22.75;;;20.08;;
3101;SDS011;1561;42.666;23.392;2022-07-06T04:03:56;19.67;;;17.67;;
3101;SDS011;1561;42.666;23.392;2022-07-06T04:06:25;21.02;;;17.38;;
3101;SDS011;1561;42.666;23.392;2022-07-06T04:08:55;23.30;;;18.30;;
3101;SDS011;1561;42.666;23.392;2022-07-06T04:11:25;20.00;;;18.08;;
3101;SDS011;1561;42.666;23.392;2022-07-06T04:13:53;19.33;;;17.42;;
3101;SDS011;1561;42.666;23.392;2022-07-06T04:16:29;21.27;;;19.02;;
3101;SDS011;1561;42.666;23.392;2022-07-06T04:18:56;17.90;;;16.00;;
3101;SDS011;1561;42.666;23.392;2022-07-06T04:21:23;17.70;;;15.50;;
3101;SDS011;1561;42.666;23.392;2022-07-06T04:23:50;17.15;;;15.35;;
3101;SDS011;1561;42.666;23.392;2022-07-06T04:26:18;20.77;;;15.13;;
3101;SDS011;1561;42.666;23.392;2022-07-06T04:28:50;14.00;;;12.32;;
3101;SDS011;1561;42.666;23.392;2022-07-06T04:31:18;12.68;;;10.80;;
3101;SDS011;1561;42.666;23.392;2022-07-06T04:33:45;10.23;;;9.32;;
3101;SDS011;1561;42.666;23.392;2022-07-06T04:36:11;10.95;;;9.40;;
3101;SDS011;1561;42.666;23.392;2022-07-06T04:38:39;9.98;;;9.07;;
3101;SDS011;1561;42.666;23.392;2022-07-06T04:41:06;11.07;;;8.43;;
3101;SDS011;1561;42.666;23.392;2022-07-06T04:43:37;9.15;;;8.23;;
3101;SDS011;1561;42.666;23.392;2022-07-06T04:46:07;11.43;;;8.32;;
3101;SDS011;1561;42.666;23.392;2022-07-06T04:48:36;10.90;;;8.88;;
3101;SDS011;1561;42.666;23.392;2022-07-06T04:51:07;9.98;;;9.00;;
3101;SDS011;1561;42.666;23.392;2022-07-06T04:53:34;9.68;;;8.65;;
3101;SDS011;1561;42.666;23.392;2022-07-06T04:56:02;10.18;;;9.13;;
3101;SDS011;1561;42.666;23.392;2022-07-06T04:58:29;14.32;;;9.77;;
3101;SDS011;1561;42.666;23.392;2022-07-06T05:00:57;10.40;;;9.43;;
3101;SDS011;1561;42.666;23.392;2022-07-06T05:03:30;11.07;;;9.80;;
3101;SDS011;1561;42.666;23.392;2022-07-06T05:06:00;17.17;;;13.40;;
3101;SDS011;1561;42.666;23.392;2022-07-06T05:08:27;11.77;;;10.15;;
3101;SDS011;1561;42.666;23.392;2022-07-06T05:10:55;12.65;;;11.38;;
3101;SDS011;1561;42.666;23.392;2022-07-06T05:13:22;13.80;;;12.50;;
3101;SDS011;1561;42.666;23.392;2022-07-06T05:15:50;12.82;;;11.40;;
3101;SDS011;1561;42.666;23.392;2022-07-06T05:18:17;16.05;;;13.02;;
3101;SDS011;1561;42.666;23.392;2022-07-06T05:20:49;19.92;;;13.85;;
3101;SDS011;1561;42.666;23.392;2022-07-06T05:23:16;14.48;;;12.98;;
3101;SDS011;1561;42.666;23.392;2022-07-06T05:25:44;16.83;;;14.60;;
3101;SDS011;1561;42.666;23.392;2022-07-06T05:28:11;14.68;;;13.18;;
3101;SDS011;1561;42.666;23.392;2022-07-06T05:30:40;15.25;;;13.60;;
3101;SDS011;1561;42.666;23.392;2022-07-06T05:33:11;16.60;;;13.63;;
3101;SDS011;1561;42.666;23.392;2022-07-06T05:35:39;16.67;;;14.35;;
3101;SDS011;1561;42.666;23.392;2022-07-06T05:38:09;15.80;;;14.30;;
3101;SDS011;1561;42.666;23.392;2022-07-06T05:40:38;16.58;;;14.07;;
3101;SDS011;1561;42.666;23.392;2022-07-06T05:43:06;14.85;;;13.35;;
3101;SDS011;1561;42.666;23.392;2022-07-06T05:45:33;12.98;;;11.68;;
3101;SDS011;1561;42.666;23.392;2022-07-06T05:48:02;13.07;;;11.88;;
3101;SDS011;1561;42.666;23.392;2022-07-06T05:50:47;13.23;;;11.90;;
3101;SDS011;1561;42.666;23.392;2022-07-06T05:53:16;13.13;;;11.95;;
3101;SDS011;1561;42.666;23.392;2022-07-06T05:55:44;13.90;;;12.02;;
3101;SDS011;1561;42.666;23.392;2022-07-06T05:58:11;16.75;;;13.48;;
3101;SDS011;1561;42.666;23.392;2022-07-06T06:00:41;13.68;;;12.38;;
3101;SDS011;1561;42.666;23.392;2022-07-06T06:03:09;13.02;;;11.63;;
3101;SDS011;1561;42.666;23.392;2022-07-06T06:05:37;15.25;;;13.07;;
3101;SDS011;1561;42.666;23.392;2022-07-06T06:08:05;15.73;;;14.02;;
3101;SDS011;1561;42.666;23.392;2022-07-06T06:10:40;14.32;;;12.90;;
3101;SDS011;1561;42.666;23.392;2022-07-06T06:13:09;13.18;;;11.75;;
3101;SDS011;1561;42.666;23.392;2022-07-06T06:15:37;14.70;;;13.18;;
3101;SDS011;1561;42.666;23.392;2022-07-06T06:18:05;14.48;;;13.07;;
3101;SDS011;1561;42.666;23.392;2022-07-06T06:20:34;13.60;;;12.30;;
3101;SDS011;1561;42.666;23.392;2022-07-06T06:23:02;14.68;;;13.10;;
3101;SDS011;1561;42.666;23.392;2022-07-06T06:25:30;13.70;;;11.90;;
3101;SDS011;1561;42.666;23.392;2022-07-06T06:28:00;15.00;;;13.57;;
3101;SDS011;1561;42.666;23.392;2022-07-06T06:30:29;14.77;;;13.27;;
3101;SDS011;1561;42.666;23.392;2022-07-06T06:33:05;29.27;;;20.25;;
3101;SDS011;1561;42.666;23.392;2022-07-06T06:35:36;14.52;;;13.02;;
3101;SDS011;1561;42.666;23.392;2022-07-06T06:38:04;16.63;;;14.68;;
3101;SDS011;1561;42.666;23.392;2022-07-06T06:40:31;14.90;;;12.80;;
3101;SDS011;1561;42.666;23.392;2022-07-06T06:43:02;14.25;;;12.85;;
3101;SDS011;1561;42.666;23.392;2022-07-06T06:45:29;14.68;;;13.18;;
3101;SDS011;1561;42.666;23.392;2022-07-06T06:47:59;14.90;;;13.43;;
3101;SDS011;1561;42.666;23.392;2022-07-06T06:50:28;14.90;;;13.25;;
3101;SDS011;1561;42.666;23.392;2022-07-06T06:52:56;15.52;;;13.77;;
3101;SDS011;1561;42.666;23.392;2022-07-06T06:55:24;15.73;;;12.70;;
3101;SDS011;1561;42.666;23.392;2022-07-06T06:57:51;14.73;;;13.32;;
3101;SDS011;1561;42.666;23.392;2022-07-06T07:00:21;15.27;;;13.68;;
3101;SDS011;1561;42.666;23.392;2022-07-06T07:02:53;14.43;;;13.10;;
3101;SDS011;1561;42.666;23.392;2022-07-06T07:05:20;15.30;;;13.50;;
3101;SDS011;1561;42.666;23.392;2022-07-06T07:07:47;16.33;;;14.68;;
3101;SDS011;1561;42.666;23.392;2022-07-06T07:10:15;16.13;;;13.80;;
3101;SDS011;1561;42.666;23.392;2022-07-06T07:12:43;14.35;;;12.95;;
3101;SDS011;1561;42.666;23.392;2022-07-06T07:15:12;13.40;;;12.20;;
3101;SDS011;1561;42.666;23.392;2022-07-06T07:17:44;15.10;;;13.52;;
3101;SDS011;1561;42.666;23.392;2022-07-06T07:20:13;14.38;;;13.18;;
3101;SDS011;1561;42.666;23.392;2022-07-06T07:22:41;13.60;;;12.18;;
3101;SDS011;1561;42.666;23.392;2022-07-06T07:25:10;14.75;;;12.32;;
3101;SDS011;1561;42.666;23.392;2022-07-06T07:27:37;14.30;;;12.90;;
3101;SDS011;1561;42.666;23.392;2022-07-06T07:30:09;15.15;;;13.85;;
3101;SDS011;1561;42.666;23.392;2022-07-06T07:32:43;14.25;;;12.85;;
3101;SDS011;1561;42.666;23.392;2022-07-06T07:35:10;13.60;;;12.45;;
3101;SDS011;1561;42.666;23.392;2022-07-06T07:37:39;14.10;;;12.82;;
3101;SDS011;1561;42.666;23.392;2022-07-06T07:40:07;14.68;;;12.82;;
3101;SDS011;1561;42.666;23.392;2022-07-06T07:42:35;16.15;;;14.65;;
3101;SDS011;1561;42.666;23.392;2022-07-06T07:45:05;16.20;;;13.43;;
3101;SDS011;1561;42.666;23.392;2022-07-06T07:47:33;13.90;;;12.65;;
3101;SDS011;1561;42.666;23.392;2022-07-06T07:50:02;15.15;;;13.65;;
3101;SDS011;1561;42.666;23.392;2022-07-06T07:52:31;15.00;;;13.63;;
3101;SDS011;1561;42.666;23.392;2022-07-06T07:54:59;16.38;;;14.80;;
3101;SDS011;1561;42.666;23.392;2022-07-06T07:57:27;18.20;;;14.18;;
3101;SDS011;1561;42.666;23.392;2022-07-06T07:59:57;15.70;;;14.15;;
3101;SDS011;1561;42.666;23.392;2022-07-06T08:02:26;17.85;;;15.32;;
3101;SDS011;1561;42.666;23.392;2022-07-06T08:04:56;15.35;;;13.80;;
3101;SDS011;1561;42.666;23.392;2022-07-06T08:07:25;14.45;;;12.82;;
3101;SDS011;1561;42.666;23.392;2022-07-06T08:09:54;22.08;;;16.63;;
3101;SDS011;1561;42.666;23.392;2022-07-06T08:12:21;15.63;;;14.02;;
3101;SDS011;1561;42.666;23.392;2022-07-06T08:14:52;17.17;;;14.10;;
3101;SDS011;1561;42.666;23.392;2022-07-06T08:17:21;14.43;;;13.10;;
3101;SDS011;1561;42.666;23.392;2022-07-06T08:19:54;13.32;;;11.93;;
3101;SDS011;1561;42.666;23.392;2022-07-06T08:22:21;13.02;;;11.93;;
3101;SDS011;1561;42.666;23.392;2022-07-06T08:24:50;13.23;;;12.05;;
3101;SDS011;1561;42.666;23.392;2022-07-06T08:27:19;12.40;;;11.30;;
3101;SDS011;1561;42.666;23.392;2022-07-06T08:29:49;11.43;;;10.52;;
3101;SDS011;1561;42.666;23.392;2022-07-06T08:32:19;12.73;;;11.57;;
3101;SDS011;1561;42.666;23.392;2022-07-06T08:34:46;11.80;;;10.90;;
3101;SDS011;1561;42.666;23.392;2022-07-06T08:37:14;12.68;;;11.68;;
3101;SDS011;1561;42.666;23.392;2022-07-06T08:39:41;12.75;;;11.65;;
3101;SDS011;1561;42.666;23.392;2022-07-06T08:42:11;13.02;;;11.52;;
3101;SDS011;1561;42.666;23.392;2022-07-06T08:44:43;12.02;;;11.05;;
3101;SDS011;1561;42.666;23.392;2022-07-06T08:47:12;13.98;;;12.57;;
3101;SDS011;1561;42.666;23.392;2022-07-06T08:49:45;13.77;;;12.38;;
3101;SDS011;1561;42.666;23.392;2022-07-06T08:52:14;12.35;;;11.45;;
3101;SDS011;1561;42.666;23.392;2022-07-06T08:54:42;12.95;;;11.80;;
3101;SDS011;1561;42.666;23.392;2022-07-06T08:57:16;12.88;;;11.77;;
3101;SDS011;1561;42.666;23.392;2022-07-06T08:59:48;13.13;;;11.50;;
3101;SDS011;1561;42.666;23.392;2022-07-06T09:02:16;14.65;;;12.65;;
3101;SDS011;1561;42.666;23.392;2022-07-06T09:04:46;14.93;;;13.60;;
3101;SDS011;1561;42.666;23.392;2022-07-06T09:07:15;14.70;;;13.30;;
3101;SDS011;1561;42.666;23.392;2022-07-06T09:09:45;16.77;;;14.27;;
3101;SDS011;1561;42.666;23.392;2022-07-06T09:12:17;14.75;;;13.25;;
3101;SDS011;1561;42.666;23.392;2022-07-06T09:14:44;17.38;;;14.50;;
3101;SDS011;1561;42.666;23.392;2022-07-06T09:17:11;14.75;;;13.27;;
3101;SDS011;1561;42.666;23.392;2022-07-06T09:19:38;13.52;;;11.35;;
3101;SDS011;1561;42.666;23.392;2022-07-06T09:22:07;12.52;;;11.52;;
3101;SDS011;1561;42.666;23.392;2022-07-06T09:24:37;14.15;;;12.95;;
3101;SDS011;1561;42.666;23.392;2022-07-06T09:27:15;15.57;;;14.18;;
3101;SDS011;1561;42.666;23.392;2022-07-06T09:29:45;15.90;;;14.25;;
3101;SDS011;1561;42.666;23.392;2022-07-06T09:32:13;16.27;;;14.88;;
3101;SDS011;1561;42.666;23.392;2022-07-06T09:34:47;15.43;;;13.82;;
3101;SDS011;1561;42.666;23.392;2022-07-06T09:37:18;15.52;;;13.80;;
3101;SDS011;1561;42.666;23.392;2022-07-06T09:39:48;15.65;;;14.18;;
3101;SDS011;1561;42.666;23.392;2022-07-06T09:42:19;14.98;;;13.65;;
3101;SDS011;1561;42.666;23.392;2022-07-06T09:44:51;14.25;;;13.05;;
3101;SDS011;1561;42.666;23.392;2022-07-06T09:47:20;13.45;;;12.15;;
3101;SDS011;1561;42.666;23.392;2022-07-06T09:50:00;15.10;;;13.60;;
3101;SDS011;1561;42.666;23.392;2022-07-06T09:52:27;14.45;;;13.15;;
3101;SDS011;1561;42.666;23.392;2022-07-06T09:54:59;14.48;;;13.15;;
3101;SDS011;1561;42.666;23.392;2022-07-06T09:57:35;14.77;;;13.48;;
3101;SDS011;1561;42.666;23.392;2022-07-06T10:00:05;15.50;;;14.00;;
3101;SDS011;1561;42.666;23.392;2022-07-06T10:02:33;20.40;;;17.50;;
3101;SDS011;1561;42.666;23.392;2022-07-06T10:05:13;24.70;;;20.40;;
3101;SDS011;1561;42.666;23.392;2022-07-06T10:07:43;15.98;;;14.60;;
3101;SDS011;1561;42.666;23.392;2022-07-06T10:10:12;15.50;;;14.00;;
3101;SDS011;1561;42.666;23.392;2022-07-06T10:12:45;14.50;;;13.10;;
3101;SDS011;1561;42.666;23.392;2022-07-06T10:15:15;15.75;;;14.45;;
3101;SDS011;1561;42.666;23.392;2022-07-06T10:17:43;16.77;;;15.35;;
3101;SDS011;1561;42.666;23.392;2022-07-06T10:20:13;16.13;;;14.73;;
3101;SDS011;1561;42.666;23.392;2022-07-06T10:22:43;18.25;;;16.08;;
3101;SDS011;1561;42.666;23.392;2022-07-06T10:25:11;16.15;;;14.63;;
3101;SDS011;1561;42.666;23.392;2022-07-06T10:27:42;16.10;;;14.75;;
3101;SDS011;1561;42.666;23.392;2022-07-06T10:30:15;16.15;;;14.85;;
3101;SDS011;1561;42.666;23.392;2022-07-06T10:32:44;15.75;;;14.45;;
3101;SDS011;1561;42.666;23.392;2022-07-06T10:35:15;14.98;;;13.75;;
3101;SDS011;1561;42.666;23.392;2022-07-06T10:38:02;15.25;;;13.95;;
3101;SDS011;1561;42.666;23.392;2022-07-06T10:40:35;17.00;;;15.50;;
3101;SDS011;1561;42.666;23.392;2022-07-06T10:43:30;15.30;;;14.00;;
3101;SDS011;1561;42.666;23.392;2022-07-06T10:45:59;16.13;;;14.65;;
3101;SDS011;1561;42.666;23.392;2022-07-06T10:48:35;16.75;;;15.25;;
3101;SDS011;1561;42.666;23.392;2022-07-06T10:51:04;17.13;;;15.68;;
3101;SDS011;1561;42.666;23.392;2022-07-06T10:53:32;17.17;;;15.70;;
3101;SDS011;1561;42.666;23.392;2022-07-06T10:56:01;15.85;;;14.55;;
3101;SDS011;1561;42.666;23.392;2022-07-06T10:58:38;14.07;;;12.85;;
3101;SDS011;1561;42.666;23.392;2022-07-06T11:01:21;14.32;;;13.13;;
3101;SDS011;1561;42.666;23.392;2022-07-06T11:03:51;15.13;;;13.80;;
3101;SDS011;1561;42.666;23.392;2022-07-06T11:06:36;15.38;;;14.02;;
3101;SDS011;1561;42.666;23.392;2022-07-06T11:09:05;14.65;;;13.38;;
3101;SDS011;1561;42.666;23.392;2022-07-06T11:11:38;15.80;;;14.40;;
3101;SDS011;1561;42.666;23.392;2022-07-06T11:14:22;16.08;;;14.77;;
3101;SDS011;1561;42.666;23.392;2022-07-06T11:17:00;14.82;;;13.63;;
3101;SDS011;1561;42.666;23.392;2022-07-06T11:19:29;17.25;;;15.85;;
3101;SDS011;1561;42.666;23.392;2022-07-06T11:21:58;16.67;;;15.07;;
3101;SDS011;1561;42.666;23.392;2022-07-06T11:24:33;15.13;;;13.90;;
3101;SDS011;1561;42.666;23.392;2022-07-06T11:27:07;16.35;;;14.90;;
3101;SDS011;1561;42.666;23.392;2022-07-06T11:29:35;15.43;;;14.02;;
3101;SDS011;1561;42.666;23.392;2022-07-06T11:32:06;17.95;;;15.07;;
3101;SDS011;1561;42.666;23.392;2022-07-06T11:34:36;18.52;;;16.92;;
3101;SDS011;1561;42.666;23.392;2022-07-06T11:37:06;16.92;;;15.63;;
3101;SDS011;1561;42.666;23.392;2022-07-06T11:39:37;15.77;;;14.45;;
3101;SDS011;1561;42.666;23.392;2022-07-06T11:42:07;18.20;;;16.35;;
3101;SDS011;1561;42.666;23.392;2022-07-06T11:44:38;19.13;;;17.27;;
3101;SDS011;1561;42.666;23.392;2022-07-06T11:47:14;17.30;;;15.80;;
3101;SDS011;1561;42.666;23.392;2022-07-06T11:49:49;15.73;;;14.52;;
3101;SDS011;1561;42.666;23.392;2022-07-06T11:52:26;16.50;;;14.93;;
3101;SDS011;1561;42.666;23.392;2022-07-06T11:54:58;16.90;;;15.48;;
3101;SDS011;1561;42.666;23.392;2022-07-06T11:57:33;15.18;;;13.98;;
3101;SDS011;1561;42.666;23.392;2022-07-06T12:00:02;15.57;;;14.27;;
3101;SDS011;1561;42.666;23.392;2022-07-06T12:02:36;16.77;;;15.10;;
3101;SDS011;1561;42.666;23.392;2022-07-06T12:05:03;17.80;;;16.30;;
3101;SDS011;1561;42.666;23.392;2022-07-06T12:07:32;24.58;;;21.73;;
3101;SDS011;1561;42.666;23.392;2022-07-06T12:10:00;18.30;;;16.45;;
3101;SDS011;1561;42.666;23.392;2022-07-06T12:12:32;17.58;;;16.15;;
3101;SDS011;1561;42.666;23.392;2022-07-06T12:14:59;17.02;;;15.55;;
3101;SDS011;1561;42.666;23.392;2022-07-06T12:17:27;18.38;;;16.77;;
3101;SDS011;1561;42.666;23.392;2022-07-06T12:19:59;14.60;;;13.40;;
3101;SDS011;1561;42.666;23.392;2022-07-06T12:22:29;17.33;;;15.30;;
3101;SDS011;1561;42.666;23.392;2022-07-06T12:24:56;15.77;;;14.38;;
3101;SDS011;1561;42.666;23.392;2022-07-06T12:27:26;15.05;;;13.88;;
3101;SDS011;1561;42.666;23.392;2022-07-06T12:30:04;15.52;;;14.13;;
3101;SDS011;1561;42.666;23.392;2022-07-06T12:32:35;16.42;;;14.98;;
3101;SDS011;1561;42.666;23.392;2022-07-06T12:35:04;13.90;;;12.60;;
3101;SDS011;1561;42.666;23.392;2022-07-06T12:37:36;16.65;;;15.23;;
3101;SDS011;1561;42.666;23.392;2022-07-06T12:40:13;15.88;;;14.48;;
3101;SDS011;1561;42.666;23.392;2022-07-06T12:42:50;17.50;;;15.75;;
3101;SDS011;1561;42.666;23.392;2022-07-06T12:45:18;18.48;;;16.63;;
3101;SDS011;1561;42.666;23.392;2022-07-06T12:47:57;41.15;;;24.58;;
3101;SDS011;1561;42.666;23.392;2022-07-06T12:50:32;15.57;;;14.27;;
3101;SDS011;1561;42.666;23.392;2022-07-06T12:53:00;16.98;;;14.80;;
3101;SDS011;1561;42.666;23.392;2022-07-06T12:55:31;17.85;;;16.25;;
3101;SDS011;1561;42.666;23.392;2022-07-06T12:58:03;14.70;;;13.40;;
3101;SDS011;1561;42.666;23.392;2022-07-06T13:00:33;15.02;;;13.73;;
3101;SDS011;1561;42.666;23.392;2022-07-06T13:03:10;17.23;;;13.73;;
3101;SDS011;1561;42.666;23.392;2022-07-06T13:05:50;13.73;;;12.63;;
3101;SDS011;1561;42.666;23.392;2022-07-06T13:08:17;13.60;;;12.60;;
3101;SDS011;1561;42.666;23.392;2022-07-06T13:10:44;14.93;;;12.90;;
3101;SDS011;1561;42.666;23.392;2022-07-06T13:13:14;12.88;;;11.88;;
3101;SDS011;1561;42.666;23.392;2022-07-06T13:15:42;13.60;;;12.52;;
3101;SDS011;1561;42.666;23.392;2022-07-06T13:18:12;12.98;;;11.80;;
3101;SDS011;1561;42.666;23.392;2022-07-06T13:20:40;13.07;;;12.05;;
3101;SDS011;1561;42.666;23.392;2022-07-06T13:25:52;11.85;;;10.85;;
3101;SDS011;1561;42.666;23.392;2022-07-06T13:28:20;11.60;;;10.50;;
3101;SDS011;1561;42.666;23.392;2022-07-06T13:30:48;10.40;;;9.60;;
3101;SDS011;1561;42.666;23.392;2022-07-06T13:33:15;9.65;;;8.70;;
3101;SDS011;1561;42.666;23.392;2022-07-06T13:35:44;8.98;;;8.27;;
3101;SDS011;1561;42.666;23.392;2022-07-06T13:38:11;10.68;;;9.70;;
3101;SDS011;1561;42.666;23.392;2022-07-06T13:40:42;9.40;;;8.70;;
3101;SDS011;1561;42.666;23.392;2022-07-06T13:43:09;9.13;;;8.32;;
3101;SDS011;1561;42.666;23.392;2022-07-06T13:45:36;8.73;;;7.93;;
3101;SDS011;1561;42.666;23.392;2022-07-06T13:48:04;7.63;;;7.13;;
3101;SDS011;1561;42.666;23.392;2022-07-06T13:50:32;9.55;;;6.38;;
3101;SDS011;1561;42.666;23.392;2022-07-06T13:53:00;5.90;;;5.50;;
3101;SDS011;1561;42.666;23.392;2022-07-06T13:55:29;7.07;;;6.60;;
3101;SDS011;1561;42.666;23.392;2022-07-06T13:58:06;6.80;;;6.35;;
3101;SDS011;1561;42.666;23.392;2022-07-06T14:00:36;6.10;;;5.60;;
3101;SDS011;1561;42.666;23.392;2022-07-06T14:03:04;6.60;;;6.10;;
3101;SDS011;1561;42.666;23.392;2022-07-06T14:05:31;5.35;;;4.97;;
3101;SDS011;1561;42.666;23.392;2022-07-06T14:08:00;6.68;;;6.25;;
3101;SDS011;1561;42.666;23.392;2022-07-06T14:10:32;6.85;;;6.15;;
3101;SDS011;1561;42.666;23.392;2022-07-06T14:12:59;5.95;;;5.55;;
3101;SDS011;1561;42.666;23.392;2022-07-06T14:15:29;5.60;;;5.10;;
3101;SDS011;1561;42.666;23.392;2022-07-06T14:17:57;5.18;;;4.88;;
3101;SDS011;1561;42.666;23.392;2022-07-06T14:20:26;6.30;;;5.78;;
3101;SDS011;1561;42.666;23.392;2022-07-06T14:22:53;5.50;;;5.10;;
3101;SDS011;1561;42.666;23.392;2022-07-06T14:25:21;6.20;;;5.80;;
3101;SDS011;1561;42.666;23.392;2022-07-06T14:27:49;5.47;;;5.10;;
3101;SDS011;1561;42.666;23.392;2022-07-06T14:47:46;6.65;;;6.07;;
3101;SDS011;1561;42.666;23.392;2022-07-06T14:50:17;5.88;;;5.47;;
3101;SDS011;1561;42.666;23.392;2022-07-06T14:52:50;5.45;;;4.95;;
3101;SDS011;1561;42.666;23.392;2022-07-06T14:55:18;6.47;;;5.55;;
3101;SDS011;1561;42.666;23.392;2022-07-06T14:57:50;5.80;;;5.30;;
3101;SDS011;1561;42.666;23.392;2022-07-06T15:00:22;5.97;;;4.68;;
3101;SDS011;1561;42.666;23.392;2022-07-06T15:02:53;5.15;;;4.75;;
3101;SDS011;1561;42.666;23.392;2022-07-06T15:05:27;5.53;;;5.03;;
3101;SDS011;1561;42.666;23.392;2022-07-06T15:07:56;5.88;;;5.40;;
3101;SDS011;1561;42.666;23.392;2022-07-06T15:10:25;5.50;;;5.00;;
3101;SDS011;1561;42.666;23.392;2022-07-06T15:12:57;6.35;;;5.75;;
3101;SDS011;1561;42.666;23.392;2022-07-06T15:15:26;5.30;;;4.63;;